createdAt,value
2018-03-02T00:01:52.399Z,-5.27
2018-03-02T00:04:21.155Z,-5.52
2018-03-02T00:06:50.341Z,-5.61
2018-03-02T00:09:20.347Z,-6.22
2018-03-02T00:11:49.041Z,-5.91
2018-03-02T00:14:18.120Z,-6.06
2018-03-02T00:16:51.887Z,-5.78
2018-03-02T00:19:20.302Z,-5.88
2018-03-02T00:21:50.192Z,-5.99
2018-03-02T00:24:18.822Z,-6.03
2018-03-02T00:26:47.628Z,-6.10
2018-03-02T00:29:17.533Z,-6.02
2018-03-02T00:31:46.056Z,-5.83
2018-03-02T00:34:15.070Z,-5.93
2018-03-02T00:36:43.580Z,-5.60
2018-03-02T00:39:13.241Z,-5.84
2018-03-02T00:41:41.662Z,-6.08
2018-03-02T00:44:10.710Z,-6.25
2018-03-02T00:46:40.912Z,-6.11
2018-03-02T00:49:10.990Z,-5.86
2018-03-02T00:51:39.489Z,-5.50
2018-03-02T00:54:08.315Z,-5.45
2018-03-02T00:56:37.736Z,-5.40
2018-03-02T00:59:06.245Z,-5.90
2018-03-02T01:01:36.653Z,-6.28
2018-03-02T01:04:06.742Z,-6.28
2018-03-02T01:06:37.769Z,-6.39
2018-03-02T01:09:06.594Z,-6.52
2018-03-02T01:11:35.462Z,-6.39
2018-03-02T01:14:04.653Z,-6.12
2018-03-02T01:16:33.543Z,-6.48
2018-03-02T01:19:02.510Z,-5.86
2018-03-02T01:21:33.671Z,-5.73
2018-03-02T01:24:03.097Z,-5.67
2018-03-02T01:26:31.561Z,-6.11
2018-03-02T01:29:02.390Z,-6.40
2018-03-02T01:31:31.698Z,-6.01
2018-03-02T01:34:01.635Z,-6.46
2018-03-02T01:36:30.495Z,-5.97
2018-03-02T01:38:59.297Z,-5.87
2018-03-02T01:41:28.937Z,-5.58
2018-03-02T01:43:57.787Z,-5.74
2018-03-02T01:46:26.984Z,-6.34
2018-03-02T01:48:55.954Z,-5.99
2018-03-02T01:51:42.708Z,-6.15
2018-03-02T01:54:12.452Z,-6.25
2018-03-02T01:56:42.191Z,-5.91
2018-03-02T01:59:11.224Z,-5.81
2018-03-02T02:01:41.440Z,-5.96
2018-03-02T02:04:10.317Z,-6.00
2018-03-02T02:06:39.137Z,-6.08
2018-03-02T02:09:07.884Z,-5.84
2018-03-02T02:11:37.741Z,-6.16
2018-03-02T02:14:07.306Z,-6.11
2018-03-02T02:16:36.617Z,-6.38
2018-03-02T02:19:05.107Z,-6.23
2018-03-02T02:21:33.719Z,-5.81
2018-03-02T02:24:02.304Z,-5.92
2018-03-02T02:26:31.089Z,-5.61
2018-03-02T02:28:59.832Z,-5.98
2018-03-02T02:31:28.657Z,-6.06
2018-03-02T02:33:57.746Z,-6.13
2018-03-02T02:36:26.600Z,-6.55
2018-03-02T02:38:55.977Z,-6.48
2018-03-02T02:41:24.739Z,-6.50
2018-03-02T02:43:53.552Z,-6.07
2018-03-02T02:46:22.655Z,-6.08
2018-03-02T02:48:51.222Z,-5.97
2018-03-02T02:51:19.979Z,-5.89
2018-03-02T02:53:48.783Z,-6.01
2018-03-02T02:56:18.126Z,-6.35
2018-03-02T02:58:47.055Z,-5.96
2018-03-02T03:01:15.947Z,-6.62
2018-03-02T03:03:44.945Z,-6.73
2018-03-02T03:06:14.359Z,-6.46
2018-03-02T03:08:42.902Z,-6.32
2018-03-02T03:11:12.080Z,-6.34
2018-03-02T03:13:40.891Z,-6.92
2018-03-02T03:16:11.256Z,-6.41
2018-03-02T03:18:41.600Z,-6.28
2018-03-02T03:21:10.049Z,-6.23
2018-03-02T03:23:39.772Z,-6.78
2018-03-02T03:26:08.747Z,-6.23
2018-03-02T03:28:38.174Z,-5.96
2018-03-02T03:31:08.779Z,-6.14
2018-03-02T03:33:37.252Z,-6.02
2018-03-02T03:36:06.432Z,-6.19
2018-03-02T03:38:36.201Z,-7.15
2018-03-02T03:41:05.977Z,-6.80
2018-03-02T03:43:34.382Z,-6.44
2018-03-02T03:46:03.720Z,-6.19
2018-03-02T03:48:32.441Z,-6.59
2018-03-02T03:51:01.608Z,-6.34
2018-03-02T03:53:30.287Z,-6.56
2018-03-02T03:55:58.885Z,-6.44
2018-03-02T03:58:27.738Z,-6.68
2018-03-02T04:00:56.155Z,-6.44
2018-03-02T04:03:27.616Z,-6.44
2018-03-02T04:05:56.603Z,-6.10
2018-03-02T04:08:26.741Z,-6.12
2018-03-02T04:10:57.606Z,-5.75
2018-03-02T04:13:26.007Z,-5.63
2018-03-02T04:15:55.666Z,-6.08
2018-03-02T04:18:24.972Z,-5.89
2018-03-02T04:20:56.466Z,-6.40
2018-03-02T04:23:26.552Z,-6.98
2018-03-02T04:25:54.972Z,-6.54
2018-03-02T04:28:24.604Z,-6.24
2018-03-02T04:30:53.022Z,-6.76
2018-03-02T04:33:22.952Z,-6.51
2018-03-02T04:35:51.377Z,-7.04
2018-03-02T04:38:20.204Z,-6.31
2018-03-02T04:40:50.022Z,-6.57
2018-03-02T04:43:18.728Z,-6.33
2018-03-02T04:45:48.116Z,-6.17
2018-03-02T04:48:17.231Z,-6.48
2018-03-02T04:50:45.700Z,-6.57
2018-03-02T04:53:14.689Z,-6.68
2018-03-02T04:55:43.214Z,-6.54
2018-03-02T04:58:13.573Z,-6.82
2018-03-02T05:00:42.349Z,-6.51
2018-03-02T05:03:12.917Z,-6.23
2018-03-02T05:05:43.064Z,-6.41
2018-03-02T05:08:11.510Z,-6.12
2018-03-02T05:10:40.377Z,-6.78
2018-03-02T05:13:08.999Z,-6.67
2018-03-02T05:15:37.697Z,-7.00
2018-03-02T05:18:07.971Z,-6.86
2018-03-02T05:20:37.166Z,-6.53
2018-03-02T05:23:06.180Z,-6.52
2018-03-02T05:25:36.510Z,-6.39
2018-03-02T05:28:05.073Z,-6.71
2018-03-02T05:30:34.179Z,-6.19
2018-03-02T05:33:02.954Z,-6.24
2018-03-02T05:35:32.235Z,-6.36
2018-03-02T05:38:02.007Z,-6.89
2018-03-02T05:40:30.957Z,-6.43
2018-03-02T05:43:05.512Z,-6.34
2018-03-02T05:45:34.338Z,-6.20
2018-03-02T05:48:07.177Z,-6.57
2018-03-02T05:50:35.933Z,-6.04
2018-03-02T05:53:04.371Z,-6.21
2018-03-02T05:55:33.215Z,-6.66
2018-03-02T05:58:02.408Z,-6.57
2018-03-02T06:00:33.981Z,-6.35
2018-03-02T06:03:03.925Z,-6.73
2018-03-02T06:05:32.363Z,-6.91
2018-03-02T06:08:01.259Z,-7.01
2018-03-02T06:10:30.895Z,-6.66
2018-03-02T06:13:00.736Z,-6.27
2018-03-02T06:15:31.262Z,-5.69
2018-03-02T06:18:00.087Z,-6.63
2018-03-02T06:20:29.357Z,-6.53
2018-03-02T06:22:58.663Z,-6.35
2018-03-02T06:25:28.964Z,-6.16
2018-03-02T06:27:59.589Z,-6.03
2018-03-02T06:30:28.428Z,-5.88
2018-03-02T06:32:58.310Z,-5.32
2018-03-02T06:35:27.119Z,-4.28
2018-03-02T06:37:55.525Z,-3.87
2018-03-02T06:40:26.596Z,-3.47
2018-03-02T06:42:55.466Z,-3.50
2018-03-02T06:45:25.069Z,-2.77
2018-03-02T06:47:55.408Z,-2.26
2018-03-02T06:50:23.821Z,-1.48
2018-03-02T06:52:53.089Z,-1.30
2018-03-02T06:55:22.002Z,-0.76
2018-03-02T06:57:50.725Z,-0.33
2018-03-02T07:00:19.524Z,-1.14
2018-03-02T07:02:48.030Z,-0.80
2018-03-02T07:05:17.339Z,-0.73
2018-03-02T07:07:46.096Z,-0.45
2018-03-02T07:10:15.377Z,0.04
2018-03-02T07:12:45.454Z,0.70
2018-03-02T07:15:13.882Z,1.11
2018-03-02T07:17:43.507Z,0.94
2018-03-02T07:20:12.283Z,1.45
2018-03-02T07:22:41.623Z,2.01
2018-03-02T07:25:11.789Z,1.71
2018-03-02T07:27:40.377Z,1.20
2018-03-02T07:30:10.043Z,1.39
2018-03-02T07:32:38.490Z,2.84
2018-03-02T07:35:07.261Z,2.84
2018-03-02T07:37:36.703Z,2.94
2018-03-02T07:40:05.942Z,1.95
2018-03-02T07:42:35.602Z,3.25
2018-03-02T07:45:04.380Z,4.55
2018-03-02T07:47:33.171Z,4.22
2018-03-02T07:50:02.079Z,4.60
2018-03-02T07:52:31.074Z,4.96
2018-03-02T07:55:01.111Z,5.32
2018-03-02T07:57:29.486Z,4.87
2018-03-02T07:59:58.770Z,4.83
2018-03-02T08:02:27.880Z,4.12
2018-03-02T08:04:56.663Z,3.89
2018-03-02T08:07:26.381Z,4.10
2018-03-02T08:09:56.991Z,4.11
2018-03-02T08:12:28.174Z,4.32
2018-03-02T08:14:56.889Z,4.12
2018-03-02T08:17:27.782Z,3.72
2018-03-02T08:19:56.527Z,4.79
2018-03-02T08:22:25.228Z,4.70
2018-03-02T08:24:54.411Z,4.29
2018-03-02T08:27:23.330Z,3.75
2018-03-02T08:29:52.606Z,4.52
2018-03-02T08:32:20.968Z,4.47
2018-03-02T08:50:18.779Z,5.28
2018-03-02T08:52:49.669Z,6.52
2018-03-02T08:55:19.597Z,6.76
2018-03-02T08:57:48.047Z,6.61
2018-03-02T09:00:16.394Z,6.19
2018-03-02T09:02:44.777Z,5.21
2018-03-02T09:05:13.185Z,6.63
2018-03-02T09:07:41.546Z,6.86
2018-03-02T09:10:10.133Z,7.06
2018-03-02T09:12:38.489Z,6.88
2018-03-02T09:15:07.273Z,6.54
2018-03-02T09:17:36.052Z,6.37
2018-03-02T09:20:04.805Z,5.73
2018-03-02T09:22:33.168Z,6.34
2018-03-02T09:25:01.595Z,6.30
2018-03-02T09:27:30.432Z,7.07
2018-03-02T09:29:58.831Z,5.84
2018-03-02T09:32:27.526Z,4.64
2018-03-02T09:34:55.945Z,5.44
2018-03-02T09:37:24.745Z,5.41
2018-03-02T09:39:53.137Z,6.06
2018-03-02T09:42:21.500Z,5.75
2018-03-02T09:44:49.859Z,6.01
2018-03-02T09:47:18.630Z,7.04
2018-03-02T09:49:46.989Z,7.32
2018-03-02T09:52:15.496Z,7.34
2018-03-02T09:54:43.876Z,7.11
2018-03-02T09:57:12.243Z,5.42
2018-03-02T09:59:40.632Z,5.13
2018-03-02T10:02:08.985Z,4.90
2018-03-02T10:04:37.364Z,4.69
2018-03-02T10:07:05.744Z,4.50
2018-03-02T10:09:34.107Z,4.42
2018-03-02T10:12:02.497Z,4.86
2018-03-02T10:14:30.879Z,4.50
2018-03-02T10:16:59.272Z,4.61
2018-03-02T10:19:27.652Z,4.42
2018-03-02T10:21:56.009Z,5.31
2018-03-02T10:24:24.387Z,5.46
2018-03-02T10:26:52.752Z,4.99
2018-03-02T10:29:21.127Z,5.20
2018-03-02T10:31:49.508Z,5.32
2018-03-02T10:34:17.881Z,5.11
2018-03-02T10:36:46.295Z,4.84
2018-03-02T10:39:14.640Z,4.20
2018-03-02T10:41:43.018Z,4.19
2018-03-02T10:44:11.423Z,3.70
2018-03-02T10:46:39.797Z,4.27
2018-03-02T10:49:08.192Z,3.80
2018-03-02T10:51:36.557Z,3.04
2018-03-02T10:54:04.929Z,2.63
2018-03-02T10:56:33.310Z,3.30
2018-03-02T10:59:01.679Z,3.61
2018-03-02T11:01:30.048Z,3.39
2018-03-02T11:04:01.200Z,3.27
2018-03-02T11:06:29.640Z,3.44
2018-03-02T11:08:58.395Z,3.09
2018-03-02T11:11:26.771Z,2.87
2018-03-02T11:13:55.139Z,3.34
2018-03-02T11:16:23.513Z,3.28
2018-03-02T11:18:51.873Z,3.42
2018-03-02T11:21:20.237Z,3.16
2018-03-02T11:23:48.626Z,2.88
2018-03-02T11:26:16.997Z,2.04
2018-03-02T11:28:45.352Z,2.24
2018-03-02T11:31:14.177Z,2.13
2018-03-02T11:33:42.539Z,1.43
2018-03-02T11:36:10.899Z,0.97
2018-03-02T11:38:39.647Z,1.02
2018-03-02T11:41:08.053Z,1.14
2018-03-02T11:43:36.413Z,0.69
2018-03-02T11:46:04.794Z,0.38
2018-03-02T11:48:33.156Z,0.82
2018-03-02T11:51:01.512Z,0.03
2018-03-02T11:53:29.879Z,0.46
2018-03-02T11:55:58.280Z,0.38
2018-03-02T11:58:26.665Z,0.90
2018-03-02T12:00:55.039Z,0.29
2018-03-02T12:03:23.422Z,0.17
2018-03-02T12:05:51.799Z,0.02
2018-03-02T12:08:20.168Z,0.18
2018-03-02T12:10:48.561Z,0.09
2018-03-02T12:13:17.472Z,0.21
2018-03-02T12:15:45.925Z,0.20
2018-03-02T12:18:14.308Z,0.00
2018-03-02T12:20:42.684Z,0.03
2018-03-02T12:23:11.086Z,-0.10
2018-03-02T12:25:39.534Z,0.08
2018-03-02T12:28:07.908Z,0.03
2018-03-02T12:30:36.287Z,0.04
2018-03-02T12:33:04.668Z,0.63
2018-03-02T12:35:33.108Z,-0.05
2018-03-02T12:38:01.526Z,0.05
2018-03-02T12:40:29.903Z,-0.25
2018-03-02T12:42:58.283Z,0.21
2018-03-02T12:45:26.679Z,0.84
2018-03-02T12:47:55.072Z,1.37
2018-03-02T12:50:23.744Z,0.99
2018-03-02T12:52:52.123Z,0.98
2018-03-02T12:55:20.588Z,0.99
2018-03-02T12:57:48.968Z,1.05
2018-03-02T13:00:17.340Z,1.45
2018-03-02T13:02:45.727Z,0.35
2018-03-02T13:05:14.120Z,0.39
2018-03-02T13:07:42.502Z,0.51
2018-03-02T13:10:10.860Z,0.93
2018-03-02T13:12:39.233Z,0.98
2018-03-02T13:15:07.637Z,0.85
2018-03-02T13:17:36.060Z,1.40
2018-03-02T13:20:04.469Z,0.97
2018-03-02T13:22:41.048Z,0.95
2018-03-02T13:25:09.416Z,1.21
2018-03-02T13:27:55.449Z,1.10
2018-03-02T13:30:23.830Z,1.45
2018-03-02T13:33:09.796Z,0.90
2018-03-02T13:35:38.175Z,1.20
2018-03-02T13:38:06.547Z,1.07
2018-03-02T13:40:52.582Z,1.04
2018-03-02T13:43:21.020Z,0.92
2018-03-02T13:45:49.406Z,0.86
2018-03-02T13:48:44.341Z,0.86
2018-03-02T13:51:12.741Z,0.59
2018-03-02T13:53:41.120Z,0.86
2018-03-02T13:56:09.482Z,0.55
2018-03-02T13:58:37.848Z,0.67
2018-03-02T14:01:06.224Z,0.36
2018-03-02T14:03:52.124Z,0.87
2018-03-02T14:06:20.509Z,0.51
2018-03-02T14:08:48.872Z,0.27
2018-03-02T14:11:17.252Z,-0.27
2018-03-02T14:13:45.779Z,0.17
2018-03-02T14:16:14.171Z,0.46
2018-03-02T14:18:42.561Z,1.21
2018-03-02T14:21:10.945Z,1.54
2018-03-02T14:23:39.387Z,1.93
2018-03-02T14:26:08.161Z,1.61
2018-03-02T14:28:36.526Z,1.66
2018-03-02T14:31:06.453Z,1.09
2018-03-02T14:33:34.812Z,1.31
2018-03-02T14:36:03.310Z,0.19
2018-03-02T14:38:31.667Z,0.32
2018-03-02T14:41:00.053Z,0.70
2018-03-02T14:43:28.423Z,0.99
2018-03-02T14:45:56.808Z,1.31
2018-03-02T14:48:25.206Z,1.72
2018-03-02T14:50:53.581Z,1.54
2018-03-02T14:53:21.959Z,1.62
2018-03-02T14:55:50.325Z,0.63
2018-03-02T14:58:18.685Z,0.96
2018-03-02T15:00:47.067Z,0.50
2018-03-02T15:03:15.604Z,0.87
2018-03-02T15:05:44.047Z,1.74
2018-03-02T15:08:12.423Z,0.69
2018-03-02T15:10:40.820Z,0.49
2018-03-02T15:13:09.181Z,0.69
2018-03-02T15:15:37.572Z,0.88
2018-03-02T15:18:05.986Z,0.83
2018-03-02T15:20:34.798Z,0.52
2018-03-02T15:23:03.213Z,0.10
2018-03-02T15:25:31.671Z,0.58
2018-03-02T15:28:00.046Z,0.38
2018-03-02T15:30:28.435Z,0.14
2018-03-02T15:32:56.798Z,0.02
2018-03-02T15:35:25.176Z,0.39
2018-03-02T15:37:53.537Z,0.61
2018-03-02T15:40:21.919Z,0.57
2018-03-02T15:42:50.363Z,0.45
2018-03-02T15:45:18.672Z,0.37
2018-03-02T15:47:47.441Z,0.41
2018-03-02T15:50:16.310Z,-0.05
2018-03-02T15:52:44.678Z,-0.08
2018-03-02T15:55:13.063Z,-0.07
2018-03-02T15:57:41.459Z,0.14
2018-03-02T16:00:09.828Z,0.37
2018-03-02T16:02:38.191Z,0.22
2018-03-02T16:05:06.580Z,0.47
2018-03-02T16:07:35.033Z,0.53
2018-03-02T16:10:03.393Z,0.60
2018-03-02T16:12:31.782Z,0.05
2018-03-02T16:15:00.149Z,-0.18
2018-03-02T16:17:28.579Z,0.11
2018-03-02T16:19:56.981Z,0.20
2018-03-02T16:22:25.736Z,0.08
2018-03-02T16:24:54.163Z,-0.34
2018-03-02T16:27:22.939Z,-0.22
2018-03-02T16:29:51.731Z,-0.14
2018-03-02T16:32:20.271Z,0.14
2018-03-02T16:34:48.665Z,0.33
2018-03-02T16:37:17.038Z,-0.11
2018-03-02T16:39:45.501Z,0.68
2018-03-02T16:42:14.072Z,0.31
2018-03-02T16:44:42.450Z,0.30
2018-03-02T16:47:10.831Z,0.65
2018-03-02T16:49:39.292Z,0.05
2018-03-02T16:52:07.694Z,-0.34
2018-03-02T16:54:36.095Z,0.00
2018-03-02T16:57:04.488Z,-0.12
2018-03-02T16:59:32.888Z,-0.28
2018-03-02T17:02:01.300Z,-0.35
2018-03-02T17:04:29.701Z,-0.38
2018-03-02T17:06:58.093Z,-0.28
2018-03-02T17:09:26.464Z,-0.59
2018-03-02T17:11:54.863Z,-0.38
2018-03-02T17:14:23.673Z,-0.18
2018-03-02T17:16:52.485Z,-0.29
2018-03-02T17:19:20.893Z,0.08
2018-03-02T17:21:49.335Z,-0.45
2018-03-02T17:24:17.769Z,-0.24
2018-03-02T17:26:46.570Z,-0.06
2018-03-02T17:29:15.383Z,-0.50
2018-03-02T17:31:43.859Z,-0.38
2018-03-02T17:34:12.287Z,0.07
2018-03-02T17:36:40.687Z,-0.51
2018-03-02T17:39:09.096Z,-0.74
2018-03-02T17:41:37.860Z,-0.14
2018-03-02T17:44:06.276Z,-0.48
2018-03-02T17:46:34.716Z,-0.85
2018-03-02T17:49:03.524Z,-0.73
2018-03-02T17:51:32.320Z,-0.23
2018-03-02T17:54:00.714Z,0.03
2018-03-02T17:56:29.171Z,-0.43
2018-03-02T17:58:57.567Z,-0.97
2018-03-02T18:01:25.946Z,-1.03
2018-03-02T18:03:54.366Z,-0.52
2018-03-02T18:06:22.974Z,-0.67
2018-03-02T18:08:51.386Z,-0.84
2018-03-02T18:11:19.833Z,-0.96
2018-03-02T18:13:48.628Z,-0.65
2018-03-02T18:16:17.439Z,-0.67
2018-03-02T18:18:46.024Z,-0.99
2018-03-02T18:21:14.428Z,-0.84
2018-03-02T18:23:42.823Z,-0.31
2018-03-02T18:26:11.225Z,-0.60
2018-03-02T18:28:39.664Z,-0.90
2018-03-02T18:31:08.070Z,-0.99
2018-03-02T18:33:36.489Z,-0.87
2018-03-02T18:36:05.299Z,-0.85
2018-03-02T18:38:33.721Z,-0.51
2018-03-02T18:41:02.132Z,-0.66
2018-03-02T18:43:30.929Z,-1.16
2018-03-02T18:45:59.322Z,-0.68
2018-03-02T18:48:27.768Z,-0.65
2018-03-02T18:50:56.559Z,-0.77
2018-03-02T18:53:25.414Z,-0.70
2018-03-02T18:55:53.806Z,-0.78
2018-03-02T18:58:22.210Z,-1.22
2018-03-02T19:00:50.615Z,-1.07
2018-03-02T19:03:19.041Z,-1.82
2018-03-02T19:05:47.454Z,-1.37
2018-03-02T19:08:16.341Z,-1.70
2018-03-02T19:10:45.206Z,-1.32
2018-03-02T19:13:13.602Z,-1.47
2018-03-02T19:15:42.005Z,-1.18
2018-03-02T19:18:10.811Z,-1.19
2018-03-02T19:20:39.208Z,-1.66
2018-03-02T19:23:07.621Z,-1.13
2018-03-02T19:25:36.031Z,-1.13
2018-03-02T19:28:04.433Z,-1.15
2018-03-02T19:30:32.831Z,-0.82
2018-03-02T19:33:01.238Z,-0.94
2018-03-02T19:35:29.633Z,-0.94
2018-03-02T19:37:58.031Z,-0.81
2018-03-02T19:40:26.444Z,-1.04
2018-03-02T19:42:54.840Z,-1.75
2018-03-02T19:45:23.236Z,-1.46
2018-03-02T19:47:51.654Z,-1.71
2018-03-02T19:50:20.063Z,-1.44
2018-03-02T19:52:48.468Z,-1.69
2018-03-02T19:55:16.868Z,-1.50
2018-03-02T19:57:46.169Z,-1.78
2018-03-02T20:00:14.569Z,-1.57
2018-03-02T20:02:42.994Z,-2.10
2018-03-02T20:05:11.531Z,-1.95
2018-03-02T20:07:39.948Z,-1.78
2018-03-02T20:10:08.524Z,-2.31
2018-03-02T20:12:36.957Z,-2.33
2018-03-02T20:15:05.763Z,-1.65
2018-03-02T20:17:34.223Z,-2.17
2018-03-02T20:20:02.594Z,-1.78
2018-03-02T20:22:31.165Z,-2.00
2018-03-02T20:24:59.565Z,-2.01
2018-03-02T20:27:28.388Z,-1.59
2018-03-02T20:29:56.770Z,-2.31
2018-03-02T20:32:25.202Z,-2.15
2018-03-02T20:34:53.680Z,-2.04
2018-03-02T20:37:22.103Z,-1.74
2018-03-02T20:39:50.504Z,-1.86
2018-03-02T20:42:18.916Z,-2.37
2018-03-02T20:44:47.326Z,-1.94
2018-03-02T20:47:15.765Z,-2.29
2018-03-02T20:49:44.168Z,-2.41
2018-03-02T20:52:13.074Z,-2.68
2018-03-02T20:54:41.880Z,-2.46
2018-03-02T20:57:10.315Z,-2.63
2018-03-02T20:59:38.726Z,-2.66
2018-03-02T21:02:07.589Z,-2.77
2018-03-02T21:04:36.924Z,-2.64
2018-03-02T21:07:05.562Z,-2.59
2018-03-02T21:09:34.958Z,-2.95
2018-03-02T21:12:04.795Z,-2.85
2018-03-02T21:14:34.640Z,-2.80
2018-03-02T21:17:03.408Z,-2.56
2018-03-02T21:19:32.336Z,-2.62
2018-03-02T21:22:01.282Z,-3.18
2018-03-02T21:24:29.719Z,-3.04
2018-03-02T21:26:58.515Z,-2.46
2018-03-02T21:29:27.108Z,-2.46
2018-03-02T21:31:55.524Z,-2.71
2018-03-02T21:34:24.345Z,-2.78
2018-03-02T21:36:52.849Z,-3.04
2018-03-02T21:39:21.251Z,-2.69
2018-03-02T21:41:49.672Z,-2.75
2018-03-02T21:44:18.076Z,-2.76
2018-03-02T21:46:46.499Z,-2.78
2018-03-02T21:49:15.127Z,-2.72
2018-03-02T21:51:43.621Z,-2.53
2018-03-02T21:54:12.034Z,-3.30
2018-03-02T21:56:40.480Z,-2.88
2018-03-02T21:59:09.037Z,-3.13
2018-03-02T22:01:38.096Z,-2.92
2018-03-02T22:04:06.637Z,-2.97
2018-03-02T22:06:36.530Z,-3.00
2018-03-02T22:09:05.861Z,-2.92
2018-03-02T22:11:34.717Z,-2.80
2018-03-02T22:14:04.874Z,-2.70
2018-03-02T22:16:33.723Z,-3.04
2018-03-02T22:19:03.578Z,-2.89
2018-03-02T22:21:32.021Z,-2.85
2018-03-02T22:24:00.426Z,-2.62
2018-03-02T22:26:28.930Z,-3.17
2018-03-02T22:28:58.313Z,-3.57
2018-03-02T22:31:26.817Z,-3.12
2018-03-02T22:33:55.449Z,-3.39
2018-03-02T22:36:24.343Z,-2.98
2018-03-02T22:38:53.037Z,-2.88
2018-03-02T22:41:21.448Z,-2.88
2018-03-02T22:43:49.882Z,-3.07
2018-03-02T22:46:18.686Z,-3.02
2018-03-02T22:48:47.152Z,-3.20
2018-03-02T22:51:16.281Z,-2.79
2018-03-02T22:53:44.719Z,-2.85
2018-03-02T22:56:13.128Z,-3.13
2018-03-02T22:58:41.528Z,-2.85
2018-03-02T23:01:13.046Z,-3.38
2018-03-02T23:03:41.565Z,-3.26
2018-03-02T23:06:10.423Z,-3.39
2018-03-02T23:08:39.036Z,-3.65
2018-03-02T23:11:07.827Z,-3.71
2018-03-02T23:13:36.531Z,-3.68
2018-03-02T23:16:04.966Z,-3.49
2018-03-02T23:18:34.879Z,-3.51
2018-03-02T23:21:04.307Z,-3.40
2018-03-02T23:23:34.443Z,-3.48
2018-03-02T23:26:04.165Z,-3.58
2018-03-02T23:28:32.677Z,-3.32
2018-03-02T23:31:02.848Z,-3.20
2018-03-02T23:33:33.153Z,-3.58
2018-03-02T23:36:03.634Z,-4.12
2018-03-02T23:38:32.636Z,-3.68
2018-03-02T23:41:01.081Z,-3.34
2018-03-02T23:43:31.616Z,-3.24
2018-03-02T23:46:01.465Z,-4.00
2018-03-02T23:48:30.540Z,-4.07
2018-03-02T23:51:01.090Z,-3.74
2018-03-02T23:53:31.025Z,-3.70
2018-03-02T23:55:59.650Z,-4.27
2018-03-02T23:58:28.066Z,-4.13
